Airfield :
LOGIN :

Register | Disclaimer

   EN    FR    IT 

 










Legend :    VFR   Marginal VFR   IFR   Intensive IFR   Very Intensive IFR
Visi :
Ceiling :
>= 8 km
>= 3000ft
5 to 8 km
1000 to 3000 ft
1500m to 5 km
500 to 1000 ft
800 to 1500m
200 to 500 ft
< 800m
< 200 ft
Symbols :   Thunderstorms  Fog  Heavy snow  Heavy precipitations  Wind > 20 kt
SIGMETs :     Misc.  Thunderstorms  Icing  Turbulence  Mountain Waves  Volcanic Ashes






- Airport Elevation : 286 ft
- IATA code : FFD


EGVA - RAF Fairford

CURRENT METAR :
  • 191456Z AUTO 22014G20KT 9999 OVC012 10/09 A2954 RMK AO2 PK WND 21027/1358 SLP007 60000 T00980093 57036 FZRANO $

EXPIRED METARs :
  • 191356Z AUTO 22019KT 9999 OVC011 10/10 A2957 RMK AO2 SLP017 T00960096 FZRANO $
  • 191326Z AUTO 22017G23KT 9999 OVC010 09/09 A2959 RMK AO2 CIG 009V012 OVC V BKN SLP025 FZRANO $

TAF AMD TAF EGVA
Valid from the 19 at 10:00 until the 20 at 12:00 UTC


191025Z 1910/2012 24015G25KT 9000 -RA BKN009 OVC015 620602 QNH2965INS
BECMG 1911/1912 24015G25KT 9000 -RA BKN009 OVC010 620609 QNH2956INS
BECMG 1914/1915 22020G30KT 9000 -RA OVC008 620609 510003 QNH2915INS
BECMG 2009/2010 20025G35KT 9000 -RA OVC008 620609 510003 QNH2909INS TX11/2002Z TN09/1915Z



MET'MAP, your aeronautical weather chart ! - Copyright ORBIFLY December 2007 - Disclaimer

ORBIFLY MET'MAP TEAM :

Programming & Development : Alexandra Zaïnal
Concept & original design : Baudouin d'Aumeries
Assistance for programming : Marc-Olivier Méhu
Technical & hardware support : Manuel Goepfert

Contact : metmap@orbifly.com




SOURCES & CREDITS :

   NOAA